Terminal Aerodrome Forecast
Issued by NWS Huntsville, AL

Home | Current Version | Previous Version | Text Only | Print | Product List | Glossary On
Versions: 1 2 3 4 5 6 7 8 9 10 11 12
000
FTUS44 KHUN 211126
TAFHSV
TAF
KHSV 211126Z 2112/2212 12006KT P6SM SCT060
     FM211600 17011KT P6SM SCT060
     FM220200 14011KT P6SM SCT060 BKN200=

USA.gov is the U.S. government's official web portal to all federal, state and local government web resources and services.